Time;durP1;ratioP1;P1;durP2;ratioP2;P2;SDS_P1;SDS_P2;PMS_P1;PMS_P2;Temp;Humidity;BMP_temperature;BMP_pressure;BME280_temperature;BME280_humidity;BME280_pressure;Samples;Min_cycle;Max_cycle;Signal;HPM_P1;HPM_P2
2022/12/13 00:01:17;;;;;;;7.72;5.25;;;;;;;;;;5015349;28;20048;-68
2022/12/13 00:03:43;;;;;;;7.28;4.78;;;;;;;;;;5015369;28;20022;-68
2022/12/13 00:06:11;;;;;;;8.32;5.40;;;;;;;;;;5015016;28;20590;-69
2022/12/13 00:08:38;;;;;;;4.88;3.78;;;;;;;;;;5015042;28;20040;-68
2022/12/13 00:11:05;;;;;;;7.88;4.80;;;;;;;;;;5014683;28;20192;-68
2022/12/13 00:13:32;;;;;;;6.60;4.30;;;;;;;;;;5014783;28;20450;-68
2022/12/13 00:15:59;;;;;;;33.42;17.23;;;;;;;;;;5014845;28;20021;-68
2022/12/13 00:18:25;;;;;;;10.25;5.07;;;;;;;;;;5014183;28;20032;-69
2022/12/13 00:20:51;;;;;;;7.00;4.55;;;;;;;;;;5014700;28;20022;-68
2022/12/13 00:23:18;;;;;;;8.35;4.65;;;;;;;;;;5014784;28;20029;-68
2022/12/13 00:25:44;;;;;;;8.02;4.60;;;;;;;;;;5014587;28;20017;-68
2022/12/13 00:28:11;;;;;;;6.22;4.45;;;;;;;;;;5014509;28;20037;-68
2022/12/13 00:30:38;;;;;;;8.93;5.20;;;;;;;;;;5014647;28;20057;-68
2022/12/13 00:33:05;;;;;;;7.97;4.80;;;;;;;;;;5014558;28;20483;-68
2022/12/13 00:35:32;;;;;;;8.35;5.75;;;;;;;;;;5014774;28;20034;-68
2022/12/13 00:37:58;;;;;;;10.07;6.07;;;;;;;;;;5014304;28;20406;-68
2022/12/13 00:40:27;;;;;;;8.82;5.45;;;;;;;;;;5013222;28;20042;-68
2022/12/13 00:42:53;;;;;;;10.07;5.53;;;;;;;;;;5014291;28;20121;-68
2022/12/13 00:45:20;;;;;;;5.68;3.88;;;;;;;;;;5014161;28;20036;-68
2022/12/13 00:47:47;;;;;;;7.57;4.20;;;;;;;;;;5014307;28;20034;-68
2022/12/13 00:50:13;;;;;;;6.70;4.40;;;;;;;;;;5014209;28;20025;-68
2022/12/13 00:52:39;;;;;;;8.13;5.18;;;;;;;;;;5014278;28;20030;-69
2022/12/13 00:55:06;;;;;;;6.88;4.20;;;;;;;;;;5013789;28;20048;-68
2022/12/13 00:57:32;;;;;;;7.97;4.13;;;;;;;;;;5014409;28;20025;-68
2022/12/13 00:59:59;;;;;;;9.13;4.03;;;;;;;;;;5014059;28;20028;-68
2022/12/13 01:02:25;;;;;;;5.75;3.95;;;;;;;;;;5014116;28;20037;-68
2022/12/13 01:04:51;;;;;;;6.93;4.45;;;;;;;;;;5013862;28;20034;-68
2022/12/13 01:07:18;;;;;;;7.82;5.13;;;;;;;;;;5013884;28;20075;-68
2022/12/13 01:09:44;;;;;;;9.60;6.18;;;;;;;;;;5014044;28;20029;-68
2022/12/13 01:12:10;;;;;;;12.95;7.40;;;;;;;;;;5013969;28;20028;-68
2022/12/13 01:14:38;;;;;;;8.50;6.00;;;;;;;;;;5012441;28;20071;-68
2022/12/13 01:17:05;;;;;;;10.98;6.20;;;;;;;;;;5013960;28;20124;-68
2022/12/13 01:19:32;;;;;;;10.68;6.95;;;;;;;;;;5012374;28;20026;-68
2022/12/13 01:22:00;;;;;;;15.07;6.80;;;;;;;;;;5011894;28;20022;-68
2022/12/13 01:24:26;;;;;;;9.13;5.93;;;;;;;;;;5013653;28;20033;-68
2022/12/13 01:26:53;;;;;;;11.38;6.45;;;;;;;;;;5013569;28;20022;-68
2022/12/13 01:29:20;;;;;;;10.93;6.38;;;;;;;;;;5012302;28;20037;-68
2022/12/13 01:31:47;;;;;;;10.10;5.53;;;;;;;;;;5013431;28;20026;-68
2022/12/13 01:34:15;;;;;;;10.43;6.13;;;;;;;;;;5013576;28;20052;-68
2022/12/13 01:36:42;;;;;;;12.10;5.95;;;;;;;;;;5012875;28;20026;-68
2022/12/13 01:39:09;;;;;;;8.35;5.43;;;;;;;;;;5013341;28;20034;-68
2022/12/13 01:41:36;;;;;;;8.38;4.75;;;;;;;;;;5013113;28;20022;-68
2022/12/13 01:44:04;;;;;;;4.28;3.22;;;;;;;;;;5013486;28;20026;-68
2022/12/13 01:46:32;;;;;;;4.88;3.60;;;;;;;;;;5013238;28;20029;-68
2022/12/13 01:49:14;;;;;;;6.10;4.07;;;;;;;;;;5013240;28;20038;-68
2022/12/13 01:51:43;;;;;;;6.78;4.00;;;;;;;;;;5012731;28;20383;-68
2022/12/13 01:54:12;;;;;;;6.05;4.18;;;;;;;;;;5012968;28;20491;-68
2022/12/13 01:56:42;;;;;;;6.28;4.65;;;;;;;;;;5013172;28;20403;-68
2022/12/13 01:59:10;;;;;;;5.60;4.40;;;;;;;;;;5012968;28;20032;-68
2022/12/13 02:01:37;;;;;;;6.03;4.00;;;;;;;;;;5013239;28;20038;-68
2022/12/13 02:04:03;;;;;;;4.50;3.08;;;;;;;;;;5012759;28;20033;-68
2022/12/13 02:06:37;;;;;;;4.18;2.58;;;;;;;;;;5012537;28;20398;-68
2022/12/13 02:09:04;;;;;;;3.17;2.60;;;;;;;;;;5012832;28;20036;-68
2022/12/13 02:11:32;;;;;;;4.28;2.80;;;;;;;;;;5012737;28;20034;-68
2022/12/13 02:13:58;;;;;;;3.45;2.58;;;;;;;;;;5012643;28;20026;-68
2022/12/13 02:16:46;;;;;;;3.60;2.30;;;;;;;;;;5012894;28;20056;-68
2022/12/13 02:19:12;;;;;;;4.28;2.83;;;;;;;;;;5012777;28;20026;-68
2022/12/13 02:21:51;;;;;;;9.38;4.57;;;;;;;;;;5012454;28;20030;-68
2022/12/13 02:24:35;;;;;;;9.55;5.03;;;;;;;;;;5012837;28;20025;-68
2022/12/13 02:27:23;;;;;;;5.38;3.50;;;;;;;;;;5012662;28;20033;-68
2022/12/13 02:30:16;;;;;;;5.60;3.38;;;;;;;;;;5012523;28;20042;-68
2022/12/13 02:32:45;;;;;;;4.13;2.97;;;;;;;;;;5011291;28;20029;-66
2022/12/13 02:35:15;;;;;;;4.65;2.53;;;;;;;;;;5012265;28;20036;-67
2022/12/13 02:37:47;;;;;;;3.10;2.63;;;;;;;;;;5012545;28;20034;-68
2022/12/13 02:40:29;;;;;;;4.68;3.15;;;;;;;;;;5012126;28;20044;-69
2022/12/13 02:43:02;;;;;;;4.78;2.80;;;;;;;;;;5012513;28;20041;-68
2022/12/13 02:45:30;;;;;;;3.58;2.45;;;;;;;;;;5012527;28;20024;-68
2022/12/13 02:47:58;;;;;;;3.90;2.88;;;;;;;;;;5012222;28;20042;-68
2022/12/13 02:50:25;;;;;;;2.88;2.20;;;;;;;;;;5012081;28;20026;-68
2022/12/13 02:52:52;;;;;;;3.83;2.80;;;;;;;;;;5012644;28;20029;-68
2022/12/13 02:55:18;;;;;;;4.68;2.95;;;;;;;;;;5012328;28;20018;-68
2022/12/13 02:57:46;;;;;;;5.18;3.00;;;;;;;;;;5012475;28;20030;-68
2022/12/13 03:00:15;;;;;;;6.47;4.00;;;;;;;;;;5012199;28;20144;-69
2022/12/13 03:02:45;;;;;;;6.97;4.07;;;;;;;;;;5012170;28;20038;-68
2022/12/13 03:08:09;;;;;;;6.32;3.33;;;;;;;;;;5011918;28;20493;-67
2022/12/13 03:10:43;;;;;;;5.43;3.60;;;;;;;;;;5012090;28;20026;-67
2022/12/13 03:16:02;;;;;;;5.85;3.50;;;;;;;;;;5012075;28;20026;-68
2022/12/13 03:18:29;;;;;;;5.82;3.30;;;;;;;;;;5011641;28;20034;-67
2022/12/13 03:20:57;;;;;;;5.88;3.25;;;;;;;;;;5012117;28;20026;-68
2022/12/13 03:23:24;;;;;;;5.38;3.72;;;;;;;;;;5012193;28;20026;-68
2022/12/13 03:25:51;;;;;;;7.43;4.68;;;;;;;;;;5012081;28;20394;-68
2022/12/13 03:28:18;;;;;;;4.95;3.10;;;;;;;;;;5011764;28;20033;-68
2022/12/13 03:30:44;;;;;;;7.85;3.75;;;;;;;;;;5011970;28;20030;-68
2022/12/13 03:33:10;;;;;;;6.80;3.58;;;;;;;;;;5011711;28;20072;-68
2022/12/13 03:35:38;;;;;;;5.88;4.05;;;;;;;;;;5012037;28;20044;-68
2022/12/13 03:38:05;;;;;;;5.20;3.35;;;;;;;;;;5011785;28;20042;-68
2022/12/13 03:40:32;;;;;;;5.05;3.70;;;;;;;;;;5011809;28;20029;-67
2022/12/13 03:42:58;;;;;;;5.75;3.97;;;;;;;;;;5011670;28;20438;-67
2022/12/13 03:45:24;;;;;;;6.82;4.28;;;;;;;;;;5010596;28;20083;-68
2022/12/13 03:47:51;;;;;;;6.32;4.10;;;;;;;;;;5011131;28;20483;-68
2022/12/13 03:50:17;;;;;;;6.70;4.20;;;;;;;;;;5011675;28;20038;-68
2022/12/13 03:52:43;;;;;;;6.10;3.90;;;;;;;;;;5012469;28;20026;-68
2022/12/13 03:55:10;;;;;;;6.55;3.95;;;;;;;;;;5015393;28;20032;-68
2022/12/13 03:57:36;;;;;;;8.68;5.07;;;;;;;;;;5015195;28;20028;-68
2022/12/13 04:00:04;;;;;;;4.15;3.10;;;;;;;;;;5014061;28;20030;-68
2022/12/13 04:02:30;;;;;;;8.70;5.15;;;;;;;;;;5014678;28;20040;-68
2022/12/13 04:04:57;;;;;;;5.05;3.17;;;;;;;;;;5015388;28;20029;-68
2022/12/13 04:07:23;;;;;;;8.25;4.47;;;;;;;;;;5014910;28;20021;-68
2022/12/13 04:09:49;;;;;;;22.77;12.82;;;;;;;;;;5015029;28;20046;-68
2022/12/13 04:15:01;;;;;;;21.50;12.00;;;;;;;;;;5015312;28;20030;-68
2022/12/13 04:17:27;;;;;;;14.73;8.40;;;;;;;;;;5014801;28;20058;-68
2022/12/13 04:19:53;;;;;;;13.18;7.90;;;;;;;;;;5013554;28;20018;-68
2022/12/13 04:22:20;;;;;;;15.05;8.82;;;;;;;;;;5014901;28;20259;-68
2022/12/13 04:24:49;;;;;;;13.88;8.20;;;;;;;;;;5013734;28;20022;-68
2022/12/13 04:27:15;;;;;;;14.10;8.60;;;;;;;;;;5014662;28;20418;-68
2022/12/13 04:29:42;;;;;;;13.43;7.60;;;;;;;;;;5014536;28;20093;-68
2022/12/13 04:32:08;;;;;;;19.42;9.65;;;;;;;;;;5014549;28;20022;-68
2022/12/13 04:34:34;;;;;;;11.65;7.07;;;;;;;;;;5014478;28;20036;-68
2022/12/13 04:37:01;;;;;;;9.38;5.93;;;;;;;;;;5014412;28;20026;-68
2022/12/13 04:39:27;;;;;;;7.65;4.22;;;;;;;;;;5014459;28;20083;-68
2022/12/13 04:41:53;;;;;;;5.65;3.53;;;;;;;;;;5014259;28;20030;-68
2022/12/13 04:44:20;;;;;;;4.32;3.25;;;;;;;;;;5014511;28;20030;-68
2022/12/13 04:46:48;;;;;;;4.25;3.20;;;;;;;;;;5014234;28;20030;-68
2022/12/13 04:49:15;;;;;;;5.30;3.85;;;;;;;;;;5014123;28;20045;-68
2022/12/13 04:51:41;;;;;;;3.95;3.28;;;;;;;;;;5014409;28;20018;-68
2022/12/13 04:54:08;;;;;;;3.78;1.95;;;;;;;;;;5013068;28;20037;-68
2022/12/13 04:56:34;;;;;;;2.60;2.38;;;;;;;;;;5014058;28;20032;-68
2022/12/13 04:59:00;;;;;;;5.60;3.65;;;;;;;;;;5014152;28;20060;-68
2022/12/13 05:01:27;;;;;;;3.30;2.90;;;;;;;;;;5013681;28;20040;-68
2022/12/13 05:03:53;;;;;;;3.28;2.50;;;;;;;;;;5013848;28;20026;-68
2022/12/13 05:06:19;;;;;;;3.97;2.97;;;;;;;;;;5014011;28;20026;-68
2022/12/13 05:08:46;;;;;;;3.70;3.13;;;;;;;;;;5013904;28;20491;-68
2022/12/13 05:11:12;;;;;;;4.20;3.67;;;;;;;;;;5014211;28;20022;-68
2022/12/13 05:13:39;;;;;;;5.28;3.70;;;;;;;;;;5013911;28;20388;-68
2022/12/13 05:16:07;;;;;;;5.28;2.95;;;;;;;;;;5013340;28;20083;-68
2022/12/13 05:18:34;;;;;;;3.47;2.70;;;;;;;;;;5013583;28;20052;-68
2022/12/13 05:21:04;;;;;;;3.55;2.95;;;;;;;;;;5013733;28;20490;-68
2022/12/13 05:23:31;;;;;;;4.37;3.03;;;;;;;;;;5029026;28;20044;-68
2022/12/13 05:25:57;;;;;;;3.72;3.05;;;;;;;;;;5013807;28;20271;-68
2022/12/13 05:28:26;;;;;;;4.32;2.95;;;;;;;;;;5013103;28;20033;-69
2022/12/13 05:30:57;;;;;;;4.20;2.63;;;;;;;;;;5013411;28;20036;-68
2022/12/13 05:33:24;;;;;;;3.63;2.78;;;;;;;;;;5013552;28;20033;-69
2022/12/13 05:35:50;;;;;;;4.28;2.80;;;;;;;;;;5013467;28;20034;-68
2022/12/13 05:38:17;;;;;;;3.15;2.28;;;;;;;;;;4995696;28;20535;-68
2022/12/13 05:40:44;;;;;;;2.63;2.08;;;;;;;;;;5013103;28;20026;-68
2022/12/13 05:43:13;;;;;;;2.20;2.00;;;;;;;;;;5012896;28;20030;-68
2022/12/13 05:45:39;;;;;;;3.60;2.20;;;;;;;;;;5013373;28;20010;-68
2022/12/13 05:48:05;;;;;;;3.20;2.53;;;;;;;;;;5013216;28;20030;-68
2022/12/13 05:50:32;;;;;;;3.00;2.53;;;;;;;;;;5013144;28;20037;-68
2022/12/13 05:52:58;;;;;;;4.13;3.08;;;;;;;;;;5013546;28;20026;-68
2022/12/13 05:55:25;;;;;;;3.20;2.53;;;;;;;;;;5013503;28;20021;-68
2022/12/13 05:57:54;;;;;;;5.93;3.70;;;;;;;;;;5012815;28;20510;-68
2022/12/13 06:00:20;;;;;;;4.55;3.38;;;;;;;;;;5013190;28;20479;-68
2022/12/13 06:02:46;;;;;;;4.80;3.83;;;;;;;;;;5012849;28;20025;-68
2022/12/13 06:05:13;;;;;;;4.28;3.20;;;;;;;;;;5013030;28;20048;-68
2022/12/13 06:07:39;;;;;;;6.13;4.40;;;;;;;;;;5012703;28;20030;-68
2022/12/13 06:10:06;;;;;;;6.07;4.75;;;;;;;;;;5012917;28;20525;-68
2022/12/13 06:12:35;;;;;;;7.50;4.72;;;;;;;;;;5012472;28;20030;-68
2022/12/13 06:15:02;;;;;;;5.10;4.15;;;;;;;;;;5012529;28;20022;-69
2022/12/13 06:17:32;;;;;;;12.48;7.07;;;;;;;;;;5012586;28;20483;-68
2022/12/13 06:19:58;;;;;;;8.93;4.97;;;;;;;;;;5012835;28;20032;-68
2022/12/13 06:22:25;;;;;;;10.13;6.15;;;;;;;;;;5012924;28;20032;-68
2022/12/13 06:24:52;;;;;;;5.85;4.47;;;;;;;;;;5012549;28;20044;-68
2022/12/13 06:27:18;;;;;;;7.05;3.85;;;;;;;;;;5012418;28;20021;-68
2022/12/13 06:29:45;;;;;;;5.88;2.78;;;;;;;;;;5012478;28;20034;-68
2022/12/13 06:32:11;;;;;;;5.50;3.90;;;;;;;;;;5012579;28;20103;-68
2022/12/13 06:34:37;;;;;;;7.40;4.53;;;;;;;;;;5012639;28;20034;-68
2022/12/13 06:37:05;;;;;;;4.05;3.40;;;;;;;;;;5012556;28;20044;-68
2022/12/13 06:39:32;;;;;;;5.65;3.55;;;;;;;;;;5012581;28;20034;-68
2022/12/13 06:41:59;;;;;;;6.05;4.80;;;;;;;;;;5012478;28;20026;-68
2022/12/13 06:44:25;;;;;;;7.28;4.50;;;;;;;;;;5012640;28;20032;-68
2022/12/13 06:46:51;;;;;;;8.75;5.78;;;;;;;;;;5012558;28;20018;-68
2022/12/13 06:49:18;;;;;;;8.18;5.53;;;;;;;;;;5012297;28;20068;-68
2022/12/13 06:51:45;;;;;;;9.90;5.90;;;;;;;;;;5012347;28;20032;-68
2022/12/13 06:54:11;;;;;;;12.32;6.75;;;;;;;;;;5012446;28;20038;-68
2022/12/13 06:56:37;;;;;;;20.23;11.45;;;;;;;;;;5012251;28;20033;-68
2022/12/13 06:59:04;;;;;;;14.18;8.85;;;;;;;;;;5011454;28;20024;-68
2022/12/13 07:01:30;;;;;;;10.70;7.40;;;;;;;;;;5012206;28;20521;-68
2022/12/13 07:03:56;;;;;;;10.30;6.32;;;;;;;;;;5012119;28;20018;-68
2022/12/13 07:06:23;;;;;;;10.20;6.70;;;;;;;;;;5011028;28;20030;-68
2022/12/13 07:08:51;;;;;;;8.93;5.55;;;;;;;;;;5011961;28;20041;-68
2022/12/13 07:11:19;;;;;;;11.52;6.75;;;;;;;;;;5011831;28;20505;-68
2022/12/13 07:13:45;;;;;;;7.50;5.28;;;;;;;;;;5010603;28;20018;-68
2022/12/13 07:16:12;;;;;;;9.05;5.97;;;;;;;;;;5009249;28;20364;-68
2022/12/13 07:18:38;;;;;;;10.65;5.95;;;;;;;;;;5010033;28;20034;-68
2022/12/13 07:21:06;;;;;;;9.65;6.18;;;;;;;;;;5026683;28;20022;-68
2022/12/13 07:23:33;;;;;;;9.35;5.60;;;;;;;;;;5026360;28;20034;-68
2022/12/13 07:26:00;;;;;;;12.25;7.47;;;;;;;;;;5002027;28;20383;-68
2022/12/13 07:28:26;;;;;;;11.32;6.78;;;;;;;;;;5013312;28;20038;-67
2022/12/13 07:30:52;;;;;;;9.90;6.57;;;;;;;;;;5015562;28;20028;-67
2022/12/13 07:33:19;;;;;;;11.05;6.85;;;;;;;;;;5010115;28;20026;-68
2022/12/13 07:35:45;;;;;;;11.98;7.25;;;;;;;;;;5017857;28;20018;-68
2022/12/13 07:38:11;;;;;;;9.60;6.68;;;;;;;;;;5018003;28;20049;-66
2022/12/13 07:40:39;;;;;;;18.08;9.43;;;;;;;;;;5022560;28;20486;-66
2022/12/13 07:43:05;;;;;;;22.45;11.02;;;;;;;;;;5021760;28;20033;-68
2022/12/13 07:45:32;;;;;;;35.40;17.33;;;;;;;;;;5023476;28;20040;-68
2022/12/13 07:47:58;;;;;;;30.58;16.35;;;;;;;;;;5022177;28;20029;-67
2022/12/13 07:50:25;;;;;;;68.93;44.42;;;;;;;;;;5017850;28;20040;-68
2022/12/13 07:52:51;;;;;;;82.40;55.63;;;;;;;;;;5016156;28;20600;-68
2022/12/13 07:55:17;;;;;;;30.73;19.17;;;;;;;;;;5013549;28;20030;-66
2022/12/13 07:57:44;;;;;;;26.25;16.42;;;;;;;;;;5014752;28;20048;-67
2022/12/13 08:00:10;;;;;;;24.60;14.55;;;;;;;;;;5014635;28;20364;-67
2022/12/13 08:02:37;;;;;;;21.40;13.15;;;;;;;;;;5015236;28;20044;-67
2022/12/13 08:05:03;;;;;;;30.80;17.58;;;;;;;;;;5019782;28;20026;-67
2022/12/13 08:07:30;;;;;;;27.30;15.75;;;;;;;;;;5014796;28;20076;-69
2022/12/13 08:09:56;;;;;;;39.03;18.55;;;;;;;;;;5021985;28;20040;-68
2022/12/13 08:12:22;;;;;;;83.28;41.05;;;;;;;;;;5016816;28;20029;-67
2022/12/13 08:14:49;;;;;;;56.17;31.52;;;;;;;;;;5012519;28;20056;-69
2022/12/13 08:17:15;;;;;;;42.20;23.02;;;;;;;;;;5010544;28;20026;-67
2022/12/13 08:19:41;;;;;;;22.75;12.52;;;;;;;;;;5022362;28;20034;-71
2022/12/13 08:22:11;;;;;;;19.92;11.43;;;;;;;;;;5010836;28;20034;-71
2022/12/13 08:24:37;;;;;;;15.88;9.70;;;;;;;;;;5008492;28;20034;-69
2022/12/13 08:27:04;;;;;;;13.40;7.65;;;;;;;;;;5011469;28;20040;-69
2022/12/13 08:29:31;;;;;;;30.90;16.25;;;;;;;;;;5012494;28;20033;-70
2022/12/13 08:31:58;;;;;;;24.55;14.20;;;;;;;;;;5012622;28;20406;-71
2022/12/13 08:34:24;;;;;;;26.55;14.98;;;;;;;;;;5013062;28;20040;-70
2022/12/13 08:36:51;;;;;;;51.58;24.35;;;;;;;;;;5012130;28;20394;-70
2022/12/13 08:39:17;;;;;;;86.50;38.20;;;;;;;;;;5011629;28;20554;-70
2022/12/13 08:41:43;;;;;;;17.15;9.82;;;;;;;;;;5010895;28;20030;-69
2022/12/13 08:44:10;;;;;;;16.08;8.82;;;;;;;;;;5011775;28;20018;-70
2022/12/13 08:46:36;;;;;;;8.32;5.35;;;;;;;;;;5012058;28;20033;-69
2022/12/13 08:49:02;;;;;;;23.33;11.90;;;;;;;;;;5011371;28;20501;-69
2022/12/13 08:51:29;;;;;;;33.45;14.93;;;;;;;;;;5012213;28;20030;-70
2022/12/13 08:53:55;;;;;;;23.02;11.30;;;;;;;;;;5027214;28;20038;-70
2022/12/13 08:56:21;;;;;;;8.52;5.85;;;;;;;;;;5012417;28;20032;-71
2022/12/13 08:58:51;;;;;;;14.48;8.40;;;;;;;;;;5011623;28;20048;-71
2022/12/13 09:01:17;;;;;;;12.80;7.55;;;;;;;;;;5011859;28;20028;-68
2022/12/13 09:03:44;;;;;;;9.75;6.07;;;;;;;;;;5010275;28;20030;-75
2022/12/13 09:06:12;;;;;;;12.07;7.05;;;;;;;;;;5011111;28;20029;-71
2022/12/13 09:08:38;;;;;;;8.23;5.97;;;;;;;;;;5011039;28;20477;-72
2022/12/13 09:11:06;;;;;;;11.57;7.00;;;;;;;;;;5012348;28;20033;-71
2022/12/13 09:13:33;;;;;;;9.63;5.85;;;;;;;;;;5011993;28;20034;-72
2022/12/13 09:16:03;;;;;;;51.00;19.52;;;;;;;;;;5012131;28;20022;-71
2022/12/13 09:18:29;;;;;;;27.83;10.65;;;;;;;;;;5011831;28;20028;-71
2022/12/13 09:20:55;;;;;;;45.08;17.40;;;;;;;;;;5010970;28;20026;-70
2022/12/13 09:23:22;;;;;;;46.67;19.60;;;;;;;;;;5026384;28;20026;-71
2022/12/13 09:25:59;;;;;;;30.65;14.07;;;;;;;;;;5011911;28;20030;-73
2022/12/13 09:28:26;;;;;;;65.68;27.90;;;;;;;;;;5010553;28;20026;-71
2022/12/13 09:30:52;;;;;;;37.05;17.80;;;;;;;;;;5010670;28;20499;-73
2022/12/13 09:33:18;;;;;;;12.00;6.88;;;;;;;;;;5009777;28;20018;-69
2022/12/13 09:35:45;;;;;;;8.07;5.43;;;;;;;;;;5006794;28;20038;-69
2022/12/13 09:38:12;;;;;;;7.40;4.53;;;;;;;;;;5010689;28;20087;-73
2022/12/13 09:40:40;;;;;;;8.35;5.35;;;;;;;;;;5011374;28;20026;-71
2022/12/13 09:43:07;;;;;;;8.75;5.93;;;;;;;;;;4991802;28;20407;-69
2022/12/13 09:45:34;;;;;;;14.93;6.00;;;;;;;;;;5007266;28;20026;-70
2022/12/13 09:48:02;;;;;;;12.32;5.43;;;;;;;;;;5012398;28;20046;-71
2022/12/13 09:50:33;;;;;;;10.20;6.40;;;;;;;;;;5016010;28;20088;-71
2022/12/13 09:53:00;;;;;;;19.33;10.90;;;;;;;;;;5019929;28;20026;-71
2022/12/13 09:55:37;;;;;;;24.30;12.70;;;;;;;;;;5016370;28;20029;-71
2022/12/13 09:58:11;;;;;;;39.28;17.83;;;;;;;;;;5014868;28;20360;-80
2022/12/13 10:00:38;;;;;;;45.80;19.60;;;;;;;;;;5016677;28;20095;-81
2022/12/13 10:03:04;;;;;;;24.20;13.10;;;;;;;;;;5013089;28;20497;-72
2022/12/13 10:05:34;;;;;;;19.00;11.30;;;;;;;;;;5010708;28;20030;-70
2022/12/13 10:08:04;;;;;;;18.08;10.02;;;;;;;;;;5011740;28;20029;-71
2022/12/13 10:10:30;;;;;;;22.50;12.60;;;;;;;;;;5030758;28;20040;-79
2022/12/13 10:13:15;;;;;;;25.33;12.55;;;;;;;;;;5030818;28;20033;-75
2022/12/13 10:15:45;;;;;;;15.55;9.60;;;;;;;;;;5030985;28;20026;-73
2022/12/13 10:18:14;;;;;;;17.73;10.63;;;;;;;;;;5024882;28;20044;-73
2022/12/13 10:20:41;;;;;;;18.77;9.93;;;;;;;;;;5015410;28;20036;-72
2022/12/13 10:23:07;;;;;;;14.00;8.05;;;;;;;;;;5028756;28;20032;-74
2022/12/13 10:25:44;;;;;;;10.40;7.32;;;;;;;;;;5008820;28;20042;-72
2022/12/13 10:28:11;;;;;;;10.05;6.45;;;;;;;;;;5010764;28;20034;-77
2022/12/13 10:30:42;;;;;;;8.88;6.47;;;;;;;;;;5009178;28;20878;-78
2022/12/13 10:33:21;;;;;;;9.05;5.82;;;;;;;;;;5010503;28;20030;-77
2022/12/13 10:36:01;;;;;;;8.52;5.53;;;;;;;;;;5011439;28;20018;-75
2022/12/13 10:38:29;;;;;;;11.47;6.47;;;;;;;;;;5011246;28;20053;-76
2022/12/13 10:40:55;;;;;;;9.05;5.70;;;;;;;;;;5011688;28;20032;-77
2022/12/13 10:43:23;;;;;;;13.07;6.20;;;;;;;;;;5011484;28;20036;-78
2022/12/13 10:45:55;;;;;;;8.77;6.20;;;;;;;;;;5011354;28;20521;-81
2022/12/13 10:48:24;;;;;;;10.07;5.55;;;;;;;;;;5011162;28;20034;-72
2022/12/13 10:51:00;;;;;;;7.65;4.90;;;;;;;;;;5010839;28;20037;-72
2022/12/13 10:53:32;;;;;;;11.20;5.15;;;;;;;;;;5011240;28;20044;-76
2022/12/13 10:55:59;;;;;;;8.15;5.45;;;;;;;;;;5012106;28;20022;-75
2022/12/13 10:58:33;;;;;;;9.32;5.57;;;;;;;;;;5023111;28;20031;-73
2022/12/13 11:01:07;;;;;;;11.13;5.55;;;;;;;;;;5030344;28;20018;-70
2022/12/13 11:03:34;;;;;;;7.63;5.53;;;;;;;;;;5008540;28;20025;-82
2022/12/13 11:06:14;;;;;;;9.15;6.03;;;;;;;;;;5006298;28;20028;-81
2022/12/13 11:08:40;;;;;;;9.50;5.95;;;;;;;;;;5014998;28;20021;-78
2022/12/13 11:11:08;;;;;;;13.00;8.23;;;;;;;;;;5015473;28;20030;-75
2022/12/13 11:13:50;;;;;;;9.77;7.38;;;;;;;;;;5015415;28;20026;-75
2022/12/13 11:16:25;;;;;;;11.05;6.70;;;;;;;;;;5014557;28;20030;-80
2022/12/13 11:18:53;;;;;;;11.48;7.07;;;;;;;;;;5015219;28;20032;-77
2022/12/13 11:21:27;;;;;;;17.25;9.57;;;;;;;;;;5014291;28;20033;-78
2022/12/13 11:23:55;;;;;;;11.70;7.75;;;;;;;;;;5015077;28;20030;-73
2022/12/13 11:26:23;;;;;;;9.55;6.78;;;;;;;;;;5033329;28;20251;-73
2022/12/13 11:28:49;;;;;;;13.10;8.00;;;;;;;;;;5034602;28;20041;-75
2022/12/13 11:31:22;;;;;;;11.50;6.45;;;;;;;;;;5049649;28;20025;-77
2022/12/13 11:33:52;;;;;;;9.80;6.07;;;;;;;;;;5023438;28;20030;-71
2022/12/13 11:36:18;;;;;;;11.02;8.10;;;;;;;;;;5014938;28;20036;-71
2022/12/13 11:38:52;;;;;;;21.70;12.13;;;;;;;;;;5014736;28;20495;-71
2022/12/13 11:41:24;;;;;;;16.08;8.88;;;;;;;;;;5013753;28;20025;-71
2022/12/13 11:44:00;;;;;;;13.30;7.95;;;;;;;;;;5014443;28;20130;-71
2022/12/13 11:46:34;;;;;;;22.52;14.25;;;;;;;;;;5014757;28;20032;-71
2022/12/13 11:49:02;;;;;;;14.77;8.88;;;;;;;;;;5014771;28;20046;-71
2022/12/13 11:51:39;;;;;;;8.73;6.00;;;;;;;;;;5014824;28;20026;-71
2022/12/13 11:54:10;;;;;;;11.10;6.63;;;;;;;;;;5014816;28;20113;-71
2022/12/13 11:56:39;;;;;;;17.83;11.75;;;;;;;;;;5013979;28;20390;-73
2022/12/13 11:59:14;;;;;;;15.73;10.45;;;;;;;;;;5014892;28;20026;-71
2022/12/13 12:01:52;;;;;;;14.70;9.60;;;;;;;;;;5014245;28;20044;-71
2022/12/13 12:04:22;;;;;;;13.77;9.32;;;;;;;;;;5014561;28;20025;-71
2022/12/13 12:07:12;;;;;;;15.50;8.15;;;;;;;;;;5014323;28;20018;-71
2022/12/13 12:09:41;;;;;;;14.05;8.15;;;;;;;;;;4992495;28;20038;-70
2022/12/13 12:12:23;;;;;;;14.38;8.85;;;;;;;;;;4992879;28;20042;-71
2022/12/13 12:14:53;;;;;;;13.40;9.45;;;;;;;;;;4991423;28;20508;-71
2022/12/13 12:17:23;;;;;;;11.35;8.07;;;;;;;;;;4992745;28;20026;-71
2022/12/13 12:19:52;;;;;;;12.30;8.18;;;;;;;;;;4993017;28;20031;-70
2022/12/13 12:22:24;;;;;;;15.55;7.88;;;;;;;;;;4987797;28;20015;-70
2022/12/13 12:24:57;;;;;;;13.18;9.15;;;;;;;;;;4988869;28;20030;-71
2022/12/13 12:27:31;;;;;;;32.83;21.13;;;;;;;;;;4990427;28;20036;-72
2022/12/13 12:30:10;;;;;;;22.40;13.65;;;;;;;;;;4989732;28;20038;-79
2022/12/13 12:32:51;;;;;;;21.75;13.98;;;;;;;;;;4994423;28;20042;-71
2022/12/13 12:35:24;;;;;;;24.08;15.85;;;;;;;;;;4996834;28;20018;-71
2022/12/13 12:38:08;;;;;;;15.75;8.60;;;;;;;;;;4989423;28;20046;-72
2022/12/13 12:40:37;;;;;;;13.88;8.73;;;;;;;;;;4994691;28;20038;-79
2022/12/13 12:43:09;;;;;;;20.08;11.27;;;;;;;;;;4989209;28;20022;-68
2022/12/13 12:45:38;;;;;;;19.65;13.05;;;;;;;;;;4991276;28;20665;-73
2022/12/13 12:48:15;;;;;;;38.67;22.52;;;;;;;;;;5012418;28;20044;-73
2022/12/13 12:50:50;;;;;;;19.73;11.65;;;;;;;;;;5012016;28;20040;-66
2022/12/13 12:53:16;;;;;;;20.75;11.77;;;;;;;;;;5011478;28;20037;-72
2022/12/13 12:55:48;;;;;;;21.27;12.18;;;;;;;;;;5018895;28;20044;-74
2022/12/13 12:58:19;;;;;;;12.40;7.72;;;;;;;;;;5014314;28;20027;-74
2022/12/13 13:01:04;;;;;;;17.17;9.10;;;;;;;;;;5007791;28;20483;-76
2022/12/13 13:03:32;;;;;;;21.27;8.38;;;;;;;;;;5015708;28;20106;-70
2022/12/13 13:05:58;;;;;;;15.77;8.20;;;;;;;;;;5011480;28;20022;-72
2022/12/13 13:08:29;;;;;;;16.15;7.63;;;;;;;;;;5017877;28;20037;-72
2022/12/13 13:10:56;;;;;;;21.70;10.37;;;;;;;;;;5010069;28;20022;-72
2022/12/13 13:13:41;;;;;;;19.75;10.65;;;;;;;;;;5029697;28;20028;-74
2022/12/13 13:16:27;;;;;;;23.42;11.77;;;;;;;;;;5010910;28;20022;-75
2022/12/13 13:18:54;;;;;;;29.15;13.65;;;;;;;;;;4992521;28;20048;-71
2022/12/13 13:21:41;;;;;;;23.73;12.55;;;;;;;;;;4991982;28;20041;-72
2022/12/13 13:24:07;;;;;;;25.73;11.75;;;;;;;;;;4994231;28;20040;-82
2022/12/13 13:26:36;;;;;;;19.67;9.43;;;;;;;;;;5010965;28;20036;-77
2022/12/13 13:29:21;;;;;;;16.95;10.20;;;;;;;;;;5013079;28;20046;-68
2022/12/13 13:32:05;;;;;;;18.45;8.60;;;;;;;;;;5011850;28;20025;-84
2022/12/13 13:34:36;;;;;;;19.13;9.93;;;;;;;;;;5011591;28;20033;-76
2022/12/13 13:37:03;;;;;;;16.75;10.32;;;;;;;;;;5011896;28;20034;-74
2022/12/13 13:39:35;;;;;;;23.17;11.43;;;;;;;;;;5013719;28;20029;-72
2022/12/13 13:42:16;;;;;;;19.55;11.20;;;;;;;;;;5012296;28;20461;-67
2022/12/13 13:44:45;;;;;;;23.70;12.32;;;;;;;;;;5010894;28;20034;-71
2022/12/13 13:47:15;;;;;;;17.55;8.82;;;;;;;;;;5019340;28;20026;-73
2022/12/13 13:49:58;;;;;;;25.38;12.80;;;;;;;;;;5010892;28;20041;-70
2022/12/13 13:52:25;;;;;;;23.30;11.38;;;;;;;;;;5009984;28;20034;-70
2022/12/13 13:54:58;;;;;;;21.95;12.43;;;;;;;;;;5010740;28;20477;-69
2022/12/13 13:57:27;;;;;;;20.25;8.73;;;;;;;;;;5011141;28;20491;-68
2022/12/13 14:00:16;;;;;;;30.98;13.27;;;;;;;;;;5023050;28;20029;-69
2022/12/13 14:02:42;;;;;;;20.98;10.25;;;;;;;;;;5006114;28;20035;-68
2022/12/13 14:05:27;;;;;;;20.92;9.82;;;;;;;;;;4991650;28;20032;-67
2022/12/13 14:08:12;;;;;;;20.05;10.00;;;;;;;;;;4991394;28;20034;-69
2022/12/13 14:10:52;;;;;;;23.63;9.93;;;;;;;;;;4991369;28;20039;-71
2022/12/13 14:13:37;;;;;;;21.03;9.77;;;;;;;;;;5002881;28;20028;-75
2022/12/13 14:16:21;;;;;;;23.55;10.52;;;;;;;;;;5009384;28;20269;-73
2022/12/13 14:18:50;;;;;;;27.80;10.38;;;;;;;;;;5010248;28;20485;-70
2022/12/13 14:21:35;;;;;;;23.70;9.68;;;;;;;;;;5010531;28;20498;-75
2022/12/13 14:24:01;;;;;;;22.10;11.23;;;;;;;;;;5010138;28;20029;-71
2022/12/13 14:26:27;;;;;;;23.52;13.50;;;;;;;;;;5010290;28;20028;-70
2022/12/13 14:28:59;;;;;;;24.80;11.88;;;;;;;;;;5010561;28;20033;-71
2022/12/13 14:31:25;;;;;;;20.10;10.98;;;;;;;;;;5010726;28;20037;-73
2022/12/13 14:33:53;;;;;;;22.75;11.75;;;;;;;;;;5010438;28;20014;-73
2022/12/13 14:36:26;;;;;;;25.15;12.88;;;;;;;;;;5008927;28;20029;-74
2022/12/13 14:38:59;;;;;;;23.38;13.10;;;;;;;;;;5010590;28;20046;-75
2022/12/13 14:41:26;;;;;;;24.60;12.57;;;;;;;;;;5010240;28;20704;-76
2022/12/13 14:43:52;;;;;;;24.38;14.13;;;;;;;;;;5010237;28;20037;-80
2022/12/13 14:46:18;;;;;;;27.30;13.25;;;;;;;;;;5009981;28;20055;-70
2022/12/13 14:48:47;;;;;;;29.77;14.77;;;;;;;;;;5009984;28;20411;-75
2022/12/13 14:51:33;;;;;;;31.60;16.48;;;;;;;;;;5012103;28;20032;-77
2022/12/13 14:54:00;;;;;;;31.02;16.38;;;;;;;;;;5009225;28;20030;-80